createdAt,value
2018-01-31T01:54:49.268Z,102414.48
2018-01-31T01:57:51.499Z,102410.31
2018-01-31T02:00:53.462Z,102402.04
2018-01-31T02:03:55.366Z,102397.45
2018-01-31T02:06:57.250Z,102392.15
2018-01-31T02:09:59.159Z,102385.56
2018-01-31T02:13:01.059Z,102377.69
2018-01-31T02:16:02.947Z,102373.31
2018-01-31T02:19:04.842Z,102358.02
2018-01-31T02:22:06.743Z,102356.90
2018-01-31T02:25:08.635Z,102353.71
2018-01-31T02:28:10.647Z,102346.26
2018-01-31T02:31:12.622Z,102340.50
2018-01-31T02:34:14.528Z,102339.49
2018-01-31T02:37:16.447Z,102334.50
2018-01-31T02:40:18.420Z,102322.19
2018-01-31T02:43:20.323Z,102320.79
2018-01-31T02:46:22.208Z,102313.35
2018-01-31T02:49:24.106Z,102305.68
2018-01-31T02:52:26.008Z,102303.57
2018-01-31T02:55:27.893Z,102294.01
2018-01-31T02:58:29.859Z,102286.10
2018-01-31T03:01:31.797Z,102282.93
2018-01-31T03:04:33.690Z,102267.57
2018-01-31T03:07:35.577Z,102244.62
2018-01-31T03:10:37.495Z,102259.56
2018-01-31T03:13:39.487Z,102260.92
2018-01-31T03:16:41.480Z,102253.15
2018-01-31T03:19:43.366Z,102245.20
2018-01-31T03:22:45.371Z,102243.75
2018-01-31T03:25:47.254Z,102238.63
2018-01-31T03:28:49.390Z,102238.41
2018-01-31T03:31:51.386Z,102247.87
2018-01-31T03:34:53.367Z,102248.39
2018-01-31T03:37:55.295Z,102239.68
2018-01-31T03:40:57.270Z,102236.62
2018-01-31T03:43:59.159Z,102240.60
2018-01-31T03:47:01.054Z,102234.19
2018-01-31T03:50:02.959Z,102227.91
2018-01-31T03:53:04.842Z,102218.33
2018-01-31T03:56:06.739Z,102218.66
2018-01-31T03:59:08.643Z,102216.41
2018-01-31T04:02:10.529Z,102213.94
2018-01-31T04:05:12.434Z,102208.42
2018-01-31T04:08:14.323Z,102207.21
2018-01-31T04:11:16.282Z,102206.70
2018-01-31T04:14:18.215Z,102201.87
2018-01-31T04:17:20.115Z,102198.01
2018-01-31T04:20:22.119Z,102198.82
2018-01-31T04:23:24.107Z,102197.35
2018-01-31T04:26:26.040Z,102186.09
2018-01-31T04:29:28.011Z,102175.96
2018-01-31T04:32:30.004Z,102176.21
2018-01-31T04:35:31.903Z,102167.99
2018-01-31T04:38:33.815Z,102164.73
2018-01-31T04:41:35.799Z,102150.96
2018-01-31T04:44:37.681Z,102143.96
2018-01-31T04:47:39.583Z,102135.66
2018-01-31T04:50:41.483Z,102135.76
2018-01-31T04:53:43.381Z,102123.61
2018-01-31T04:56:45.275Z,102121.01
2018-01-31T04:59:47.270Z,102117.22
2018-01-31T05:02:49.159Z,102122.31
2018-01-31T05:05:51.088Z,102119.81
2018-01-31T05:08:53.067Z,102117.48
2018-01-31T05:11:54.975Z,102108.83
2018-01-31T05:14:56.851Z,102106.33
2018-01-31T05:17:58.751Z,102103.58
2018-01-31T05:21:00.663Z,102100.75
2018-01-31T05:24:02.545Z,102099.43
2018-01-31T05:27:05.207Z,102097.35
2018-01-31T05:30:07.165Z,102090.81
2018-01-31T05:33:09.047Z,102082.00
2018-01-31T05:36:13.015Z,102078.21
2018-01-31T05:39:14.898Z,102069.88
2018-01-31T05:42:16.883Z,102072.05
2018-01-31T05:45:18.835Z,102067.68
2018-01-31T05:48:20.787Z,102062.66
2018-01-31T05:51:22.684Z,102054.87
2018-01-31T05:54:25.582Z,102056.04
2018-01-31T05:57:27.511Z,102057.05
2018-01-31T06:00:29.431Z,102046.06
2018-01-31T06:03:31.402Z,102041.02
2018-01-31T06:06:33.271Z,102032.56
2018-01-31T06:09:35.189Z,102030.92
2018-01-31T06:12:37.088Z,102026.46
2018-01-31T06:15:38.978Z,102029.68
2018-01-31T06:18:40.880Z,102031.82
2018-01-31T06:21:42.775Z,102035.19
2018-01-31T06:24:44.672Z,102036.63
2018-01-31T06:27:46.534Z,102028.52
2018-01-31T06:30:48.453Z,102021.69
2018-01-31T06:33:50.326Z,102019.66
2018-01-31T06:36:52.258Z,102016.45
2018-01-31T06:39:54.152Z,102017.04
2018-01-31T06:42:56.032Z,102015.30
2018-01-31T06:45:57.899Z,102014.44
2018-01-31T06:48:59.797Z,102008.36
2018-01-31T06:52:01.669Z,102009.46
2018-01-31T06:55:03.531Z,102000.00
2018-01-31T06:58:05.405Z,101991.12
2018-01-31T07:01:07.276Z,101988.51
2018-01-31T07:04:09.164Z,101985.13
2018-01-31T07:07:11.039Z,101978.61
2018-01-31T07:10:12.932Z,101975.43
2018-01-31T07:13:14.810Z,101975.46
2018-01-31T07:16:16.696Z,101975.75
2018-01-31T07:19:18.592Z,101970.67
2018-01-31T07:22:20.464Z,101963.38
2018-01-31T07:25:22.351Z,101964.25
2018-01-31T07:28:24.234Z,101959.32
2018-01-31T07:31:26.164Z,101956.05
2018-01-31T07:34:28.039Z,101958.65
2018-01-31T07:37:29.935Z,101950.20
2018-01-31T07:40:31.820Z,101943.11
2018-01-31T07:43:33.683Z,101937.89
2018-01-31T07:46:35.562Z,101929.01
2018-01-31T07:49:37.503Z,101928.44
2018-01-31T07:52:39.380Z,101929.26
2018-01-31T07:55:41.278Z,101933.54
2018-01-31T07:58:43.162Z,101930.25
2018-01-31T08:01:45.059Z,101927.73
2018-01-31T08:04:46.927Z,101918.53
2018-01-31T08:07:49.151Z,101912.26
2018-01-31T08:10:51.035Z,101907.52
2018-01-31T08:13:52.923Z,101902.63
2018-01-31T08:16:54.799Z,101901.43
2018-01-31T08:19:56.722Z,101900.38
2018-01-31T08:22:58.598Z,101896.82
2018-01-31T08:26:00.608Z,101889.95
2018-01-31T08:29:02.487Z,101887.57
2018-01-31T08:32:04.358Z,101881.50
2018-01-31T08:35:06.249Z,101871.98
2018-01-31T08:38:08.127Z,101862.32
2018-01-31T08:41:10.009Z,101853.77
2018-01-31T08:44:11.883Z,101847.78
2018-01-31T08:47:13.776Z,101845.42
2018-01-31T08:50:15.647Z,101841.56
2018-01-31T08:53:17.524Z,101833.79
2018-01-31T08:56:19.467Z,101822.30
2018-01-31T08:59:21.366Z,101814.33
2018-01-31T09:02:23.281Z,101807.42
2018-01-31T09:05:25.162Z,101805.11
2018-01-31T09:08:27.060Z,101801.92
2018-01-31T09:11:28.931Z,101804.54
2018-01-31T09:14:30.807Z,101793.04
2018-01-31T09:17:32.689Z,101798.85
2018-01-31T09:20:34.566Z,101798.67
2018-01-31T09:23:36.435Z,101799.29
2018-01-31T09:26:38.326Z,101799.10
2018-01-31T09:29:40.207Z,101794.71
2018-01-31T09:32:42.201Z,101785.97
2018-01-31T09:35:44.047Z,101784.48
2018-01-31T09:38:46.548Z,101770.31
2018-01-31T09:41:48.414Z,101765.44
2018-01-31T09:44:50.289Z,101764.92
2018-01-31T09:47:52.190Z,101753.86
2018-01-31T09:50:54.079Z,101747.51
2018-01-31T09:53:55.954Z,101750.95
2018-01-31T09:56:57.852Z,101738.97
2018-01-31T09:59:59.715Z,101735.68
2018-01-31T10:03:01.602Z,101737.19
2018-01-31T10:06:03.476Z,101731.20
2018-01-31T10:09:05.355Z,101736.86
2018-01-31T10:12:07.431Z,101736.92
2018-01-31T10:15:09.315Z,101728.50
2018-01-31T10:18:11.194Z,101726.10
2018-01-31T10:21:13.099Z,101720.85
2018-01-31T10:24:14.983Z,101721.28
2018-01-31T10:27:16.867Z,101721.86
2018-01-31T10:30:18.751Z,101711.03
2018-01-31T10:33:20.630Z,101702.60
2018-01-31T10:36:22.543Z,101694.58
2018-01-31T10:39:24.423Z,101687.93
2018-01-31T10:42:26.290Z,101687.25
2018-01-31T10:45:28.172Z,101670.59
2018-01-31T10:48:30.175Z,101663.99
2018-01-31T10:51:32.058Z,101647.09
2018-01-31T10:57:35.818Z,101626.19
2018-01-31T11:00:37.702Z,101619.53
2018-01-31T11:03:39.574Z,101630.33
2018-01-31T11:06:41.463Z,101621.77
2018-01-31T11:09:43.410Z,101599.42
2018-01-31T11:12:45.299Z,101586.77
2018-01-31T11:15:47.180Z,101573.51
2018-01-31T11:18:49.071Z,101561.88
2018-01-31T11:21:50.942Z,101541.92
2018-01-31T11:24:52.823Z,101522.44
2018-01-31T11:27:54.699Z,101514.48
2018-01-31T11:30:56.571Z,101518.44
2018-01-31T11:33:58.453Z,101534.93
2018-01-31T11:37:00.323Z,101535.28
2018-01-31T11:40:02.199Z,101532.49
2018-01-31T11:43:04.074Z,101515.93
2018-01-31T11:46:05.947Z,101507.71
2018-01-31T11:49:07.839Z,101485.84
2018-01-31T11:52:09.719Z,101483.90
2018-01-31T11:55:11.607Z,101473.50
2018-01-31T11:58:13.540Z,101458.08
2018-01-31T12:01:15.420Z,101446.47
2018-01-31T12:04:17.304Z,101431.24
2018-01-31T12:07:19.179Z,101430.59
2018-01-31T12:10:21.288Z,101419.62
2018-01-31T12:13:23.171Z,101413.25
2018-01-31T12:16:25.056Z,101409.50
2018-01-31T12:19:26.938Z,101420.60
2018-01-31T12:22:28.866Z,101413.55
2018-01-31T12:25:30.755Z,101400.13
2018-01-31T12:28:32.630Z,101395.25
2018-01-31T12:31:34.533Z,101396.17
2018-01-31T12:34:36.470Z,101392.02
2018-01-31T12:37:38.302Z,101386.37
2018-01-31T12:40:40.174Z,101378.93
2018-01-31T12:43:42.071Z,101372.60
2018-01-31T12:46:43.963Z,101358.12
2018-01-31T12:49:45.830Z,101359.65
2018-01-31T12:52:47.731Z,101352.80
2018-01-31T12:55:49.697Z,101345.18
2018-01-31T12:58:51.595Z,101334.70
2018-01-31T13:01:53.494Z,101314.56
2018-01-31T13:04:55.398Z,101301.71
2018-01-31T13:07:57.269Z,101303.26
2018-01-31T13:10:59.158Z,101300.79
2018-01-31T13:14:01.095Z,101294.17
2018-01-31T13:17:03.008Z,101284.56
2018-01-31T13:20:04.879Z,101283.45
2018-01-31T13:23:06.763Z,101271.24
2018-01-31T13:26:08.645Z,101265.83
2018-01-31T13:29:10.520Z,101259.69
2018-01-31T13:32:12.475Z,101251.97
2018-01-31T13:35:14.375Z,101236.90
2018-01-31T13:38:20.464Z,101227.08
2018-01-31T13:41:22.328Z,101211.29
2018-01-31T13:44:24.199Z,101196.81
2018-01-31T13:47:26.077Z,101183.72
2018-01-31T13:50:27.943Z,101177.73
2018-01-31T13:53:29.831Z,101165.70
2018-01-31T13:56:31.727Z,101163.62
2018-01-31T13:59:33.859Z,101151.56
2018-01-31T14:02:35.730Z,101135.43
2018-01-31T14:05:37.831Z,101123.35
2018-01-31T14:08:39.715Z,101120.12
2018-01-31T14:11:41.597Z,101119.19
2018-01-31T14:14:43.475Z,101112.43
2018-01-31T14:17:45.359Z,101105.48
2018-01-31T14:20:47.246Z,101095.09
2018-01-31T14:23:49.200Z,101098.34
2018-01-31T14:26:52.357Z,101102.10
2018-01-31T14:29:54.223Z,101097.89
2018-01-31T14:32:56.135Z,101093.16
2018-01-31T14:35:58.029Z,101084.86
2018-01-31T14:38:59.907Z,101076.94
2018-01-31T14:42:01.811Z,101074.91
2018-01-31T14:45:03.724Z,101077.19
2018-01-31T14:48:05.639Z,101070.17
2018-01-31T14:51:07.522Z,101065.69
2018-01-31T14:54:09.403Z,101057.14
2018-01-31T14:57:11.283Z,101055.64
2018-01-31T15:00:13.175Z,101044.15
2018-01-31T15:03:15.055Z,101042.26
2018-01-31T15:06:16.918Z,101036.18
2018-01-31T15:09:18.798Z,101038.73
2018-01-31T15:12:20.676Z,101023.77
2018-01-31T15:15:22.579Z,101015.56
2018-01-31T15:18:24.471Z,101007.98
2018-01-31T15:21:26.342Z,100998.07
2018-01-31T15:24:28.220Z,100986.47
2018-01-31T15:27:30.107Z,100977.96
2018-01-31T15:30:31.975Z,100978.68
2018-01-31T15:33:33.879Z,100958.84
2018-01-31T15:36:35.827Z,100958.41
2018-01-31T15:39:37.703Z,100946.19
2018-01-31T15:42:39.610Z,100943.48
2018-01-31T15:45:41.482Z,100939.48
2018-01-31T15:48:43.370Z,100939.91
2018-01-31T15:51:45.316Z,100938.55
2018-01-31T15:54:47.190Z,100937.30
2018-01-31T15:57:49.071Z,100939.66
2018-01-31T16:00:50.955Z,100944.58
2018-01-31T16:03:52.996Z,100958.45
2018-01-31T16:06:54.878Z,100947.39
2018-01-31T16:09:56.754Z,100949.74
2018-01-31T16:12:58.675Z,100949.64
2018-01-31T16:16:00.558Z,100939.59
2018-01-31T16:19:02.440Z,100940.15
2018-01-31T16:22:04.327Z,100935.23
2018-01-31T16:25:06.220Z,100931.08
2018-01-31T16:28:08.143Z,100930.07
2018-01-31T16:31:10.019Z,100927.12
2018-01-31T16:34:11.907Z,100927.03
2018-01-31T16:37:13.787Z,100920.02
2018-01-31T16:40:15.703Z,100911.32
2018-01-31T16:43:17.590Z,100921.12
2018-01-31T16:46:19.463Z,100918.62
2018-01-31T16:49:21.371Z,100919.43
2018-01-31T16:52:23.276Z,100912.54
2018-01-31T16:55:25.148Z,100909.90
2018-01-31T16:58:27.027Z,100892.94
2018-01-31T17:01:28.918Z,100902.99
2018-01-31T17:04:30.819Z,100892.17
2018-01-31T17:07:32.687Z,100888.37
2018-01-31T17:10:34.602Z,100889.62
2018-01-31T17:13:36.483Z,100881.35
2018-01-31T17:16:38.358Z,100876.78
2018-01-31T17:19:40.807Z,100880.45
2018-01-31T17:22:42.695Z,100869.90
2018-01-31T17:25:44.566Z,100866.32
2018-01-31T17:28:46.443Z,100855.71
2018-01-31T17:31:48.330Z,100849.55
2018-01-31T17:34:50.232Z,100852.37
2018-01-31T17:37:53.250Z,100850.30
2018-01-31T17:40:55.127Z,100847.31
2018-01-31T17:43:57.011Z,100843.63
2018-01-31T17:46:58.926Z,100845.80
2018-01-31T17:50:00.814Z,100838.47
2018-01-31T17:53:02.710Z,100834.86
2018-01-31T17:56:04.598Z,100823.75
2018-01-31T17:59:06.503Z,100824.34
2018-01-31T18:02:08.491Z,100818.35
2018-01-31T18:05:10.384Z,100817.72
2018-01-31T18:08:12.252Z,100813.53
2018-01-31T18:11:14.135Z,100808.50
2018-01-31T18:14:16.054Z,100800.93
2018-01-31T18:17:18.039Z,100794.82
2018-01-31T18:20:19.927Z,100793.94
2018-01-31T18:23:21.871Z,100786.02
2018-01-31T18:26:23.773Z,100785.26
2018-01-31T18:29:25.658Z,100782.40
2018-01-31T18:32:27.582Z,100772.64
2018-01-31T18:35:29.822Z,100774.58
2018-01-31T18:38:31.703Z,100766.42
2018-01-31T18:41:33.583Z,100763.19
2018-01-31T18:44:35.478Z,100763.64
2018-01-31T18:47:37.355Z,100766.96
2018-01-31T18:50:39.239Z,100757.91
2018-01-31T18:53:41.121Z,100749.21
2018-01-31T18:56:42.984Z,100749.45
2018-01-31T18:59:45.517Z,100751.39
2018-01-31T19:02:47.404Z,100748.28
2018-01-31T19:05:49.279Z,100739.65
2018-01-31T19:08:51.163Z,100738.25
2018-01-31T19:11:53.100Z,100735.03
2018-01-31T19:14:55.991Z,100732.83
2018-01-31T19:17:57.884Z,100720.40
2018-01-31T19:20:59.803Z,100717.56
2018-01-31T19:24:01.683Z,100717.90
2018-01-31T19:27:03.584Z,100712.28
2018-01-31T19:30:05.467Z,100711.97
2018-01-31T19:33:07.355Z,100707.29
2018-01-31T19:36:09.248Z,100703.43
2018-01-31T19:39:11.135Z,100709.85
2018-01-31T19:42:13.379Z,100706.87
2018-01-31T19:45:15.451Z,100696.15
2018-01-31T19:48:17.343Z,100699.10
2018-01-31T19:51:19.218Z,100685.66
2018-01-31T19:54:21.123Z,100690.75
2018-01-31T19:57:22.998Z,100688.83
2018-01-31T20:00:24.893Z,100681.86
2018-01-31T20:03:26.762Z,100680.81
2018-01-31T20:06:29.723Z,100675.38
2018-01-31T20:09:31.622Z,100670.18
2018-01-31T20:12:33.504Z,100672.56
2018-01-31T20:15:35.384Z,100660.31
2018-01-31T20:18:37.266Z,100662.32
2018-01-31T20:21:39.462Z,100662.39
2018-01-31T20:24:41.351Z,100654.31
2018-01-31T20:27:43.236Z,100654.41
2018-01-31T20:30:45.122Z,100652.94
2018-01-31T20:33:47.009Z,100648.75
2018-01-31T20:36:48.906Z,100646.58
2018-01-31T20:39:50.786Z,100643.53
2018-01-31T20:42:52.659Z,100645.23
2018-01-31T20:45:54.547Z,100642.89
2018-01-31T20:48:56.440Z,100637.64
2018-01-31T20:51:58.329Z,100634.11
2018-01-31T20:55:00.239Z,100631.72
2018-01-31T20:58:02.123Z,100630.32
2018-01-31T21:01:03.995Z,100620.39
2018-01-31T21:04:05.886Z,100614.46
2018-01-31T21:07:07.809Z,100622.90
2018-01-31T21:10:09.691Z,100619.42
2018-01-31T21:13:11.563Z,100609.45
2018-01-31T21:16:13.442Z,100607.68
2018-01-31T21:19:15.376Z,100608.35
2018-01-31T21:22:17.288Z,100607.51
2018-01-31T21:25:19.170Z,100610.55
2018-01-31T21:28:21.071Z,100598.54
2018-01-31T21:31:22.968Z,100604.30
2018-01-31T21:34:24.858Z,100605.12
2018-01-31T21:37:26.768Z,100589.92
2018-01-31T21:40:29.805Z,100592.06
2018-01-31T21:43:31.680Z,100596.92
2018-01-31T21:46:33.567Z,100590.60
2018-01-31T21:49:35.479Z,100582.27
2018-01-31T21:52:37.382Z,100579.58
2018-01-31T21:55:39.258Z,100569.99
2018-01-31T21:58:41.148Z,100564.30
2018-01-31T22:01:43.037Z,100565.65
2018-01-31T22:04:44.914Z,100559.08
2018-01-31T22:07:46.799Z,100561.45
2018-01-31T22:10:48.671Z,100559.38
2018-01-31T22:13:50.544Z,100554.35
2018-01-31T22:16:52.611Z,100552.42
2018-01-31T22:19:54.507Z,100547.02
2018-01-31T22:22:56.386Z,100540.17
2018-01-31T22:25:58.282Z,100531.88
2018-01-31T22:29:00.211Z,100528.39
2018-01-31T22:32:02.096Z,100533.60
2018-01-31T22:35:03.983Z,100527.54
2018-01-31T22:38:05.903Z,100526.00
2018-01-31T22:41:07.788Z,100525.92
2018-01-31T22:44:09.679Z,100526.90
2018-01-31T22:47:11.551Z,100524.01
2018-01-31T22:50:13.439Z,100524.46
2018-01-31T22:53:15.341Z,100518.09
2018-01-31T22:56:17.222Z,100518.20
2018-01-31T22:59:19.127Z,100510.53
2018-01-31T23:02:21.015Z,100522.51
2018-01-31T23:05:22.928Z,100524.46
2018-01-31T23:08:24.799Z,100520.13
2018-01-31T23:11:30.846Z,100522.69
2018-01-31T23:14:36.902Z,100528.53
2018-01-31T23:17:42.955Z,100519.68
2018-01-31T23:20:44.848Z,100520.70
2018-01-31T23:23:46.725Z,100520.18
2018-01-31T23:26:48.607Z,100527.94
2018-01-31T23:29:50.487Z,100528.21
2018-01-31T23:32:52.358Z,100524.37
2018-01-31T23:35:54.231Z,100527.32
2018-01-31T23:38:56.111Z,100532.95
2018-01-31T23:41:58.019Z,100535.12
2018-01-31T23:44:59.898Z,100538.17
2018-01-31T23:48:01.778Z,100534.38
2018-01-31T23:51:03.672Z,100529.24
2018-01-31T23:54:05.557Z,100524.45
2018-01-31T23:57:07.443Z,100528.90
